Ana Sayfa
METAR-TAF:

METAR-TAF

Havaalanları :

Beslan Havalimanı

Vladikavkaz, Rusya

Enlem: 43-12-18N, Boylam: 044-36-24E, yükseklik: 510 m

Güncel hava durumu gözlemi

Rapor saat 16:00 UTC de 19 dakika önce yapıldı.
Rüzgar batıdan 8 kt
Sıcaklık 24°C
Nem 69%
Basınç 1016 hPa
Görüş mesafesi 10 km veya daha fazla

METAR: URMO 231600Z 28004MPS 9999 NSC 24/18 Q1016 R09/010070 NOSIG RMK QFE718/0958

Saat: 19:19 (16:19 UTC)

Tahmin

Rapor saat 14:00 UTC de 2 saat ve 19 dakika önce yapıldı.
Ayın 23'si saat 15 UTC'den ayın 23'si saat 24 UTC'ye kadar geçerli Tahmin
Rüzgar doğu/güneydoğudan 6 kt ve 16 kt'a kadar ani rüzgarlar
Görüş mesafesi 10 km veya daha fazla
3000 ft yükseklikte parçalı çok bulutlu, Yükselen kümülüs.

TAF: URMO 231400Z 2315/2324 12003G08MPS 9999 BKN030TCU

4.000'den fazla havaalanı için hava durumu gözlemleri ve tahminleri (METAR ve TAF raporları).

Kullanılabilir istasyonlar harita üzerinde sarı ve kırmızı noktalarla gösterilir.

İstasyonun adını görmek için fareyi noktanın üzerinde gezdirin.

Sonrasında hava gözlem ve tahminlerini görmek için tıklayın.

Haritayı değiştirmek için: yaklaştırmak için siyah artı işaretli yeşil düğmeye ve uzaklaştırmak için de eksi işaretli düğmeye hızla tıklayın; bitişik haritalar için yeşil okları kullanın.


METAR-TAF: